Time;durP1;ratioP1;P1;durP2;ratioP2;P2;SDS_P1;SDS_P2;PMS_P1;PMS_P2;Temp;Humidity;BMP_temperature;BMP_pressure;BME280_temperature;BME280_humidity;BME280_pressure;Samples;Min_cycle;Max_cycle;Signal;HPM_P1;HPM_P2
2021/03/22 12:14:36;;;;;;;26.55;20.55;;;24.70;29.00;;;;;;4945212;23;20048;-67
2021/03/22 12:17:07;;;;;;;26.30;19.02;;;24.80;29.10;;;;;;4900872;29;20111;-67
2021/03/22 12:19:40;;;;;;;21.27;17.60;;;24.80;28.80;;;;;;4915826;29;20055;-68
2021/03/22 12:22:13;;;;;;;17.58;15.52;;;24.80;28.80;;;;;;4917899;29;20036;-67
2021/03/22 12:24:39;;;;;;;17.70;13.52;;;24.90;28.80;;;;;;4917050;29;20410;-66
2021/03/22 12:27:10;;;;;;;20.55;13.60;;;25.00;28.70;;;;;;4900059;29;20088;-67
2021/03/22 12:29:36;;;;;;;15.48;12.52;;;25.00;28.40;;;;;;4900843;29;20036;-66
2021/03/22 12:32:03;;;;;;;20.33;11.30;;;25.00;28.60;;;;;;4911674;29;20043;-67
2021/03/22 12:34:29;;;;;;;17.83;9.88;;;25.10;28.40;;;;;;4904298;29;20501;-66
2021/03/22 12:36:55;;;;;;;10.38;8.63;;;25.20;28.40;;;;;;4919655;29;20028;-66
2021/03/22 12:39:33;;;;;;;13.82;9.73;;;25.30;29.00;;;;;;4901381;29;20038;-66
2021/03/22 12:42:27;;;;;;;12.23;9.18;;;25.30;28.40;;;;;;4889828;29;20036;-66
2021/03/22 12:44:54;;;;;;;14.18;9.10;;;25.40;28.60;;;;;;4899287;29;20048;-67
2021/03/22 12:47:24;;;;;;;13.15;8.50;;;25.50;28.50;;;;;;4900286;29;20083;-67
2021/03/22 12:49:50;;;;;;;11.77;8.35;;;25.50;28.90;;;;;;4892144;29;20037;-67
2021/03/22 12:52:17;;;;;;;9.07;7.78;;;25.60;28.30;;;;;;4912151;29;20174;-66
2021/03/22 12:54:43;;;;;;;12.32;7.43;;;25.70;28.20;;;;;;4891488;29;20518;-65
2021/03/22 12:57:21;;;;;;;8.02;7.25;;;25.70;28.10;;;;;;4900892;29;20414;-65
2021/03/22 12:59:50;;;;;;;9.98;7.68;;;25.70;27.90;;;;;;4900417;29;20498;-65
2021/03/22 13:02:23;;;;;;;7.68;6.93;;;25.80;27.90;;;;;;4881981;29;20505;-66
2021/03/22 13:04:50;;;;;;;7.18;5.88;;;25.90;27.80;;;;;;4869177;29;20045;-66
2021/03/22 13:07:17;;;;;;;8.07;6.15;;;26.00;28.00;;;;;;4902173;29;20028;-66
2021/03/22 13:09:44;;;;;;;7.97;5.50;;;26.10;27.80;;;;;;4900486;29;20044;-65
2021/03/22 13:12:33;;;;;;;7.88;5.50;;;26.10;27.60;;;;;;4899424;29;20032;-61
2021/03/22 13:14:59;;;;;;;9.45;6.03;;;26.20;27.50;;;;;;4917711;29;20044;-64
2021/03/22 13:17:31;;;;;;;6.35;5.30;;;26.30;27.50;;;;;;4917526;29;20036;-65
2021/03/22 13:19:57;;;;;;;7.65;5.20;;;26.30;27.30;;;;;;4899850;29;20032;-64
2021/03/22 13:22:36;;;;;;;6.28;4.53;;;26.30;27.50;;;;;;4927871;29;20497;-64
2021/03/22 13:25:03;;;;;;;4.97;4.55;;;26.30;27.50;;;;;;4904065;29;20031;-65
2021/03/22 13:27:30;;;;;;;5.90;5.30;;;26.30;27.60;;;;;;4897682;29;20024;-64
2021/03/22 13:29:56;;;;;;;8.13;5.45;;;26.30;27.70;;;;;;4884904;29;20028;-64
2021/03/22 13:32:23;;;;;;;7.72;4.80;;;26.20;27.80;;;;;;4916960;29;20418;-64
2021/03/22 13:34:49;;;;;;;7.45;4.50;;;26.20;27.90;;;;;;4899538;29;20443;-64
2021/03/22 13:37:19;;;;;;;9.85;5.10;;;26.20;27.90;;;;;;4915997;29;20107;-64
2021/03/22 13:39:48;;;;;;;;;;;26.10;27.80;;;;;;4916637;29;20039;-64
2021/03/22 13:42:16;;;;;;;16.00;12.65;;;26.10;28.30;;;;;;4915040;29;20415;-64
2021/03/22 13:44:42;;;;;;;30.15;24.98;;;26.10;28.00;;;;;;4909702;29;20036;-64
2021/03/22 13:47:09;;;;;;;32.25;29.05;;;26.10;28.00;;;;;;4916827;29;20127;-59
2021/03/22 13:49:35;;;;;;;35.30;31.58;;;26.10;28.00;;;;;;4898451;29;20042;-60
2021/03/22 13:52:02;;;;;;;38.33;34.63;;;26.10;27.90;;;;;;4899901;29;20035;-61
2021/03/22 13:54:30;;;;;;;33.50;30.25;;;26.00;27.80;;;;;;4899499;29;20036;-60
2021/03/22 13:56:56;;;;;;;25.42;22.15;;;26.00;28.10;;;;;;4898883;29;20209;-60
2021/03/22 13:59:28;;;;;;;25.40;22.90;;;26.00;27.60;;;;;;4899083;29;20028;-60
2021/03/22 14:01:55;;;;;;;21.83;19.65;;;25.90;27.50;;;;;;4899555;29;20028;-61
2021/03/22 14:04:22;;;;;;;19.33;17.48;;;25.90;27.60;;;;;;4915087;29;20028;-61
2021/03/22 14:06:48;;;;;;;17.75;15.57;;;25.80;27.60;;;;;;4899579;29;20424;-60
2021/03/22 14:09:16;;;;;;;17.35;15.52;;;25.80;27.60;;;;;;4916388;29;20117;-60
2021/03/22 14:11:43;;;;;;;15.93;14.43;;;25.80;27.50;;;;;;4899690;29;20028;-60
2021/03/22 14:14:09;;;;;;;14.38;12.88;;;25.80;27.70;;;;;;4897447;29;20599;-60
2021/03/22 14:16:36;;;;;;;13.63;12.32;;;25.80;27.70;;;;;;4881313;29;20040;-61
2021/03/22 14:19:04;;;;;;;12.63;11.43;;;25.70;27.50;;;;;;4914694;29;20442;-61
2021/03/22 14:21:30;;;;;;;13.32;11.40;;;25.70;27.60;;;;;;4916843;29;20111;-61
2021/03/22 14:23:57;;;;;;;10.40;9.35;;;25.70;27.70;;;;;;4883843;29;20036;-61
2021/03/22 14:26:23;;;;;;;9.63;8.50;;;25.70;27.70;;;;;;4916731;29;20028;-61
2021/03/22 14:28:49;;;;;;;8.20;7.40;;;25.60;27.50;;;;;;4916307;29;20490;-60
2021/03/22 14:31:27;;;;;;;9.20;7.38;;;25.60;27.40;;;;;;4899116;29;20047;-60
2021/03/22 14:33:57;;;;;;;9.57;7.65;;;25.60;27.20;;;;;;4915770;29;20032;-60
2021/03/22 14:36:26;;;;;;;7.90;7.20;;;25.60;27.50;;;;;;4899009;29;20501;-60
2021/03/22 14:38:53;;;;;;;7.45;6.47;;;25.60;27.60;;;;;;4914942;29;20027;-61
2021/03/22 14:41:19;;;;;;;7.85;7.05;;;25.60;27.60;;;;;;4912628;29;20031;-61
2021/03/22 14:43:47;;;;;;;7.18;6.47;;;25.70;27.70;;;;;;4915603;29;20493;-61
2021/03/22 14:46:13;;;;;;;7.47;6.28;;;25.60;27.70;;;;;;4899078;29;20032;-61
2021/03/22 14:48:40;;;;;;;6.90;6.20;;;25.70;27.80;;;;;;4898757;29;20047;-60
2021/03/22 14:51:06;;;;;;;6.70;5.75;;;25.70;27.80;;;;;;4898795;29;20036;-60
2021/03/22 14:53:36;;;;;;;7.82;6.13;;;25.70;27.90;;;;;;4883709;29;20032;-60
2021/03/22 14:56:04;;;;;;;6.47;5.88;;;25.70;28.00;;;;;;4916255;29;20036;-60
2021/03/22 14:58:30;;;;;;;6.40;5.80;;;25.70;28.00;;;;;;4899046;29;20111;-59
2021/03/22 15:00:56;;;;;;;7.07;5.53;;;25.80;28.10;;;;;;4883513;29;20378;-61
2021/03/22 15:03:22;;;;;;;6.10;5.50;;;25.80;28.20;;;;;;4898128;29;20024;-62
2021/03/22 15:05:49;;;;;;;5.88;5.28;;;25.80;28.20;;;;;;4883981;29;20505;-61
2021/03/22 15:08:15;;;;;;;5.90;5.40;;;25.80;28.30;;;;;;4899199;29;20410;-61
2021/03/22 15:10:46;;;;;;;6.90;4.90;;;25.80;28.30;;;;;;4897376;29;20061;-61
2021/03/22 15:13:16;;;;;;;6.50;5.82;;;25.70;28.30;;;;;;4905430;29;20094;-61
2021/03/22 15:15:42;;;;;;;8.75;5.45;;;25.70;28.30;;;;;;4902082;29;20059;-61
2021/03/22 15:18:19;;;;;;;6.53;5.72;;;25.70;28.30;;;;;;4936070;29;20026;-59
2021/03/22 15:20:47;;;;;;;7.75;5.20;;;25.60;28.10;;;;;;4883765;29;20058;-61
2021/03/22 15:23:20;;;;;;;17.08;15.30;;;25.60;28.10;;;;;;4916287;29;20032;-60
2021/03/22 15:25:47;;;;;;;26.02;22.90;;;25.60;28.10;;;;;;4877880;29;20037;-61
2021/03/22 15:28:21;;;;;;;30.80;27.48;;;25.50;28.20;;;;;;4881187;29;20039;-61
2021/03/22 15:30:48;;;;;;;27.27;24.48;;;25.50;28.20;;;;;;4899825;29;20126;-61
2021/03/22 15:33:22;;;;;;;25.45;22.75;;;25.40;28.10;;;;;;4898070;29;20028;-60
2021/03/22 15:35:58;;;;;;;23.63;21.13;;;25.30;27.90;;;;;;4898362;29;20036;-61
2021/03/22 15:38:25;;;;;;;21.42;19.23;;;25.30;27.90;;;;;;4884141;29;20036;-61
2021/03/22 15:40:55;;;;;;;21.23;19.05;;;25.30;28.10;;;;;;4899549;29;20092;-60
2021/03/22 15:43:22;;;;;;;18.52;16.63;;;25.20;28.10;;;;;;4883052;29;20403;-59
2021/03/22 15:45:48;;;;;;;14.95;13.45;;;25.10;28.10;;;;;;4884546;29;20039;-59
2021/03/22 15:48:15;;;;;;;15.15;13.57;;;25.10;28.00;;;;;;4899476;29;20028;-59
2021/03/22 15:50:41;;;;;;;12.50;11.30;;;25.10;28.00;;;;;;4898476;29;20040;-59
2021/03/22 15:53:07;;;;;;;14.80;10.70;;;25.00;28.00;;;;;;4897564;29;20386;-59
2021/03/22 15:55:35;;;;;;;11.65;10.25;;;25.00;28.00;;;;;;4914903;29;20044;-59
2021/03/22 15:58:01;;;;;;;9.05;8.15;;;24.90;28.00;;;;;;4882409;29;20063;-60
2021/03/22 16:00:33;;;;;;;9.77;8.77;;;24.90;27.90;;;;;;4898222;29;20082;-60
2021/03/22 16:03:02;;;;;;;9.90;8.68;;;24.90;27.90;;;;;;4897958;29;20091;-60
2021/03/22 16:05:29;;;;;;;7.82;7.13;;;24.80;28.00;;;;;;4914656;29;20096;-60
2021/03/22 16:07:58;;;;;;;10.55;9.40;;;24.80;28.00;;;;;;4915097;29;20121;-60
2021/03/22 16:10:25;;;;;;;16.15;14.50;;;24.70;27.70;;;;;;4898372;29;20067;-61
2021/03/22 16:12:54;;;;;;;22.58;20.25;;;24.70;27.80;;;;;;4897264;29;20059;-60
2021/03/22 16:15:23;;;;;;;21.80;19.20;;;24.70;27.90;;;;;;4897101;29;20036;-60
2021/03/22 16:17:49;;;;;;;19.30;17.27;;;24.60;27.90;;;;;;4914714;29;20036;-59
2021/03/22 16:20:26;;;;;;;18.30;16.40;;;24.60;27.90;;;;;;4899648;29;20038;-58
2021/03/22 16:22:52;;;;;;;17.50;15.68;;;24.60;27.90;;;;;;4885426;29;20059;-60
2021/03/22 16:25:22;;;;;;;27.35;24.52;;;24.60;27.80;;;;;;4906953;29;20541;-60
2021/03/22 16:27:49;;;;;;;28.38;25.20;;;24.60;27.80;;;;;;4901845;29;20335;-60
2021/03/22 16:30:19;;;;;;;46.42;41.08;;;24.50;27.90;;;;;;4886371;29;20051;-60
2021/03/22 16:32:46;;;;;;;52.88;46.53;;;24.50;28.00;;;;;;4917068;29;20426;-60
2021/03/22 16:35:16;;;;;;;51.25;45.22;;;24.50;28.00;;;;;;4917241;29;20056;-59
2021/03/22 16:37:49;;;;;;;55.75;45.85;;;24.50;28.00;;;;;;4916240;29;20035;-60
2021/03/22 16:40:17;;;;;;;49.00;43.50;;;24.50;28.10;;;;;;4917725;29;20028;-60
2021/03/22 16:42:44;;;;;;;51.63;39.28;;;24.50;28.20;;;;;;4909300;29;20023;-61
2021/03/22 16:45:12;;;;;;;45.20;40.30;;;24.50;28.30;;;;;;4920098;29;20032;-60
2021/03/22 16:47:39;;;;;;;46.20;36.90;;;24.50;28.50;;;;;;4901033;29;20099;-61
2021/03/22 16:50:06;;;;;;;48.00;32.75;;;24.50;28.70;;;;;;4901060;29;20035;-60
2021/03/22 16:52:32;;;;;;;32.22;20.83;;;24.40;29.00;;;;;;4917303;29;20036;-62
2021/03/22 16:54:58;;;;;;;20.25;14.52;;;24.40;29.50;;;;;;4917794;29;20036;-62
2021/03/22 16:57:25;;;;;;;15.45;11.77;;;24.40;30.00;;;;;;4900696;29;20483;-62
2021/03/22 16:59:51;;;;;;;13.40;11.10;;;24.40;30.30;;;;;;4900927;29;20032;-62
2021/03/22 17:02:17;;;;;;;17.33;12.57;;;24.30;30.40;;;;;;4917327;29;20020;-62
2021/03/22 17:04:43;;;;;;;12.93;11.50;;;24.30;30.60;;;;;;4917897;29;20062;-62
2021/03/22 17:07:09;;;;;;;12.40;10.45;;;24.30;30.80;;;;;;4901150;29;20052;-62
2021/03/22 17:09:36;;;;;;;16.45;11.05;;;24.20;31.00;;;;;;4900982;29;20096;-62
2021/03/22 17:12:03;;;;;;;9.50;7.80;;;24.20;31.10;;;;;;4900754;29;20050;-62
2021/03/22 17:14:29;;;;;;;88.57;78.88;;;24.20;31.40;;;;;;4917651;29;20055;-62
2021/03/22 17:16:58;;;;;;;100.50;90.20;;;24.20;31.80;;;;;;4882960;29;20032;-62
2021/03/22 17:19:24;;;;;;;87.82;78.78;;;24.10;32.10;;;;;;4899536;29;20024;-62
2021/03/22 17:21:50;;;;;;;67.38;60.03;;;24.10;32.40;;;;;;4900452;29;20039;-63
2021/03/22 17:24:16;;;;;;;52.88;47.20;;;24.10;32.70;;;;;;4900502;29;20123;-63
2021/03/22 17:26:43;;;;;;;49.35;44.25;;;24.10;32.70;;;;;;4917239;29;20043;-62
2021/03/22 17:29:10;;;;;;;47.60;41.53;;;24.00;32.70;;;;;;4919186;29;20042;-63
2021/03/22 17:31:36;;;;;;;47.13;42.00;;;24.00;32.80;;;;;;4918807;29;20032;-63
2021/03/22 17:34:02;;;;;;;47.13;42.05;;;24.00;32.80;;;;;;4927447;29;20087;-63
2021/03/22 17:36:29;;;;;;;43.47;38.38;;;23.90;32.90;;;;;;4931579;29;20189;-63
2021/03/22 17:38:58;;;;;;;41.47;37.17;;;23.90;32.90;;;;;;4904263;29;20027;-62
2021/03/22 17:41:24;;;;;;;42.15;37.45;;;23.90;33.00;;;;;;4916461;29;20119;-62
2021/03/22 17:43:53;;;;;;;40.80;36.42;;;23.90;33.10;;;;;;4916458;29;20035;-62
2021/03/22 17:46:22;;;;;;;38.88;34.38;;;23.80;33.10;;;;;;4884668;29;20032;-62
2021/03/22 17:48:49;;;;;;;35.65;32.15;;;23.80;33.10;;;;;;4883675;29;20039;-62
2021/03/22 17:51:15;;;;;;;37.40;33.33;;;23.80;33.20;;;;;;4889918;29;20509;-62
2021/03/22 17:53:42;;;;;;;35.55;31.98;;;23.80;33.30;;;;;;4936033;29;20039;-62
2021/03/22 17:56:08;;;;;;;36.42;32.63;;;23.70;33.30;;;;;;4932325;29;20032;-62
2021/03/22 17:58:35;;;;;;;33.47;29.88;;;23.70;33.40;;;;;;4909418;29;20107;-62
2021/03/22 18:01:02;;;;;;;33.17;29.63;;;23.70;33.60;;;;;;4884121;29;20047;-62
2021/03/22 18:03:28;;;;;;;32.50;29.08;;;23.70;33.60;;;;;;4899554;29;20024;-62
2021/03/22 18:05:54;;;;;;;31.77;28.38;;;23.60;33.70;;;;;;4916883;29;20040;-62
2021/03/22 18:08:21;;;;;;;30.38;26.35;;;23.60;33.80;;;;;;4904052;29;20031;-62
2021/03/22 18:10:54;;;;;;;31.65;26.95;;;23.60;34.10;;;;;;4919530;29;20368;-61
2021/03/22 18:13:25;;;;;;;52.15;46.63;;;23.60;35.00;;;;;;4901171;29;20060;-61
2021/03/22 18:15:52;;;;;;;58.50;52.33;;;23.50;35.90;;;;;;4897485;29;20075;-61
2021/03/22 18:18:19;;;;;;;66.70;59.25;;;23.50;35.70;;;;;;4916091;29;20035;-61
2021/03/22 18:20:45;;;;;;;65.15;58.13;;;23.50;35.80;;;;;;4897573;29;20024;-61
2021/03/22 18:23:11;;;;;;;62.95;56.28;;;23.50;35.90;;;;;;4889443;29;20439;-61
2021/03/22 18:25:38;;;;;;;60.35;53.92;;;23.50;36.00;;;;;;4892164;29;20664;-61
2021/03/22 18:28:05;;;;;;;60.17;53.70;;;23.50;36.20;;;;;;4889942;29;20474;-60
2021/03/22 18:30:31;;;;;;;59.72;51.63;;;23.40;36.30;;;;;;4874325;29;20028;-60
2021/03/22 18:32:58;;;;;;;57.95;49.63;;;23.40;36.40;;;;;;4876874;29;20044;-60
2021/03/22 18:35:29;;;;;;;52.35;46.92;;;23.40;36.60;;;;;;4908160;29;20028;-60
2021/03/22 18:37:56;;;;;;;52.20;46.60;;;23.40;37.20;;;;;;4915335;29;20435;-60
2021/03/22 18:40:22;;;;;;;48.17;43.10;;;23.40;37.00;;;;;;4915333;29;20119;-61
2021/03/22 18:42:48;;;;;;;48.40;42.58;;;23.30;37.10;;;;;;4915749;29;20035;-60
2021/03/22 18:45:15;;;;;;;44.50;39.67;;;23.40;37.50;;;;;;4917349;29;20438;-61
2021/03/22 18:47:41;;;;;;;40.65;36.17;;;23.30;37.70;;;;;;4923577;29;20064;-60
2021/03/22 18:50:08;;;;;;;43.50;35.30;;;23.30;37.80;;;;;;4915811;29;20028;-61
2021/03/22 18:52:35;;;;;;;36.42;32.13;;;23.30;38.00;;;;;;4883286;29;20395;-61
2021/03/22 18:55:01;;;;;;;34.05;30.42;;;23.30;38.00;;;;;;4901051;29;20114;-60
2021/03/22 18:57:27;;;;;;;29.98;26.77;;;23.30;38.20;;;;;;4889536;29;20462;-60
2021/03/22 18:59:54;;;;;;;28.98;25.95;;;23.30;38.50;;;;;;4898065;29;20051;-61
2021/03/22 19:02:20;;;;;;;29.33;26.13;;;23.30;38.70;;;;;;4898039;29;20020;-61
2021/03/22 19:04:46;;;;;;;27.27;22.65;;;23.30;38.80;;;;;;4918600;29;20024;-61
2021/03/22 19:07:12;;;;;;;23.85;19.75;;;23.30;38.90;;;;;;4913047;29;20103;-60
2021/03/22 19:09:39;;;;;;;22.20;19.80;;;23.20;39.20;;;;;;4890131;29;20036;-59
2021/03/22 19:12:05;;;;;;;22.92;18.55;;;23.20;39.30;;;;;;4910423;29;20427;-59
2021/03/22 19:14:32;;;;;;;29.50;19.88;;;23.20;39.50;;;;;;4886509;29;20056;-59
2021/03/22 19:17:01;;;;;;;29.90;26.33;;;23.20;39.70;;;;;;4894327;29;20060;-64
2021/03/22 19:19:28;;;;;;;29.80;23.53;;;23.20;40.30;;;;;;4899843;29;20036;-65
2021/03/22 19:21:54;;;;;;;39.42;27.55;;;23.20;40.20;;;;;;4882614;29;20340;-67
2021/03/22 19:24:20;;;;;;;37.92;29.08;;;23.20;40.40;;;;;;4908809;29;20040;-66
2021/03/22 19:26:46;;;;;;;30.20;25.38;;;23.20;40.60;;;;;;4916330;29;20107;-66
2021/03/22 19:29:16;;;;;;;29.35;23.33;;;23.20;40.70;;;;;;4901219;29;20024;-65
2021/03/22 19:31:43;;;;;;;29.08;25.05;;;23.20;41.10;;;;;;4884278;29;20060;-66
2021/03/22 19:34:09;;;;;;;25.23;22.58;;;23.10;41.00;;;;;;4898854;29;20043;-65
2021/03/22 19:36:36;;;;;;;25.08;22.13;;;23.10;41.00;;;;;;4898841;29;20566;-65
2021/03/22 19:39:03;;;;;;;25.88;21.05;;;23.10;41.30;;;;;;4883766;29;20036;-64
2021/03/22 19:41:30;;;;;;;27.13;23.23;;;23.10;41.50;;;;;;4899673;29;20064;-65
2021/03/22 19:43:56;;;;;;;23.50;21.00;;;23.10;41.30;;;;;;4913265;29;20147;-65
2021/03/22 19:46:23;;;;;;;23.15;19.48;;;23.10;41.20;;;;;;4934610;29;20024;-64
2021/03/22 19:48:49;;;;;;;27.98;22.52;;;23.10;41.30;;;;;;4900730;29;20028;-66
2021/03/22 19:51:18;;;;;;;26.23;20.42;;;23.10;41.30;;;;;;4899370;29;20063;-65
2021/03/22 19:53:44;;;;;;;29.73;22.58;;;23.10;41.60;;;;;;4883013;29;20032;-63
2021/03/22 19:56:11;;;;;;;22.95;20.50;;;23.10;41.30;;;;;;4899805;29;20490;-64
2021/03/22 19:58:41;;;;;;;28.27;22.50;;;23.10;41.40;;;;;;4902503;29;20470;-64
2021/03/22 20:01:08;;;;;;;22.75;18.42;;;23.10;41.30;;;;;;4884158;29;20037;-64
2021/03/22 20:03:37;;;;;;;22.90;20.40;;;23.10;41.40;;;;;;4898419;29;20064;-65
2021/03/22 20:06:03;;;;;;;21.88;19.60;;;23.10;41.30;;;;;;4898731;29;20395;-66
2021/03/22 20:08:31;;;;;;;21.27;19.05;;;23.10;41.40;;;;;;4902688;29;20042;-66
2021/03/22 20:10:57;;;;;;;23.10;18.90;;;23.10;41.30;;;;;;4902133;29;20037;-66
2021/03/22 20:13:29;;;;;;;22.63;20.23;;;23.10;41.20;;;;;;4918633;29;20048;-66
2021/03/22 20:15:57;;;;;;;20.48;18.23;;;23.10;41.50;;;;;;4919380;29;20074;-66
2021/03/22 20:18:25;;;;;;;19.42;17.35;;;23.10;41.40;;;;;;4918397;29;20538;-66
2021/03/22 20:21:06;;;;;;;19.92;16.95;;;23.10;41.40;;;;;;4917674;29;20107;-66
2021/03/22 20:23:33;;;;;;;18.27;16.35;;;23.10;41.50;;;;;;4918126;29;20482;-65
2021/03/22 20:26:03;;;;;;;16.33;13.80;;;23.10;41.30;;;;;;4917849;29;20501;-65
2021/03/22 20:28:31;;;;;;;16.45;13.68;;;23.10;41.30;;;;;;4900796;29;20114;-65
2021/03/22 20:31:00;;;;;;;15.23;13.48;;;23.10;41.40;;;;;;4917967;29;20032;-65
2021/03/22 20:33:33;;;;;;;15.57;11.50;;;23.10;41.30;;;;;;4918894;29;20044;-65
2021/03/22 20:36:02;;;;;;;15.38;12.43;;;23.00;41.50;;;;;;4901625;29;20035;-65
2021/03/22 20:38:30;;;;;;;14.05;9.93;;;23.00;41.40;;;;;;4918049;29;20497;-65
2021/03/22 20:40:57;;;;;;;11.50;10.30;;;23.00;41.40;;;;;;4919643;29;20140;-65
2021/03/22 20:43:23;;;;;;;11.10;9.23;;;23.00;41.30;;;;;;4937221;29;20106;-65
2021/03/22 20:45:49;;;;;;;11.93;8.80;;;23.00;41.30;;;;;;4912606;29;20040;-64
2021/03/22 20:48:16;;;;;;;12.07;10.88;;;23.00;41.20;;;;;;4918318;29;20047;-65
2021/03/22 20:50:42;;;;;;;13.18;8.98;;;23.00;41.20;;;;;;4901365;29;20106;-65
2021/03/22 20:53:08;;;;;;;11.13;9.20;;;23.00;41.30;;;;;;4917595;29;20401;-65
2021/03/22 20:55:34;;;;;;;10.95;9.75;;;23.00;41.30;;;;;;4917627;29;20403;-65
2021/03/22 20:58:00;;;;;;;12.63;9.48;;;23.00;41.30;;;;;;4917802;29;20032;-64
2021/03/22 21:00:35;;;;;;;10.18;8.43;;;23.00;41.30;;;;;;4918126;29;20032;-65
2021/03/22 21:03:03;;;;;;;9.30;8.30;;;22.90;41.50;;;;;;4900678;29;20040;-66
2021/03/22 21:05:31;;;;;;;9.45;7.35;;;22.90;41.30;;;;;;4917581;29;20061;-65
2021/03/22 21:07:58;;;;;;;7.95;7.15;;;22.90;41.40;;;;;;4890582;29;20186;-65
2021/03/22 21:10:31;;;;;;;15.98;8.07;;;22.90;41.40;;;;;;4936570;29;20038;-65
2021/03/22 21:12:57;;;;;;;25.98;21.10;;;22.90;41.60;;;;;;4936376;29;20063;-64
2021/03/22 21:15:24;;;;;;;32.70;28.98;;;22.90;41.50;;;;;;4919011;29;20043;-65
2021/03/22 21:17:51;;;;;;;28.48;25.48;;;22.90;41.60;;;;;;4910886;29;20055;-65
2021/03/22 21:20:36;;;;;;;28.67;25.65;;;22.90;41.70;;;;;;4921988;29;20386;-65
2021/03/22 21:23:03;;;;;;;25.80;23.10;;;22.90;41.80;;;;;;4936827;29;20108;-64
2021/03/22 21:25:30;;;;;;;23.63;21.23;;;22.90;41.70;;;;;;4923257;29;20032;-65
2021/03/22 21:27:57;;;;;;;23.60;19.05;;;22.90;41.80;;;;;;4884800;29;20028;-70
2021/03/22 21:30:26;;;;;;;19.95;16.42;;;22.90;41.80;;;;;;4885106;29;20028;-70
2021/03/22 21:32:54;;;;;;;17.80;15.93;;;22.90;42.00;;;;;;4927924;29;20110;-70
2021/03/22 21:35:24;;;;;;;17.25;14.48;;;22.90;42.00;;;;;;4932889;29;20046;-70
2021/03/22 21:37:51;;;;;;;16.70;14.38;;;22.90;41.90;;;;;;4900936;29;20064;-71
2021/03/22 21:40:24;;;;;;;14.95;13.45;;;22.90;41.80;;;;;;4901023;29;20861;-71
2021/03/22 21:42:50;;;;;;;17.30;14.32;;;22.90;41.90;;;;;;4918193;29;20025;-71
2021/03/22 21:45:18;;;;;;;16.50;13.35;;;22.90;41.60;;;;;;4928145;29;20123;-70
2021/03/22 21:47:45;;;;;;;13.13;11.73;;;22.90;41.70;;;;;;4934892;29;20047;-70
2021/03/22 21:50:12;;;;;;;15.77;13.10;;;22.80;41.50;;;;;;4923763;29;20210;-71
2021/03/22 21:52:38;;;;;;;15.02;12.95;;;22.80;41.50;;;;;;4923707;29;20028;-71
2021/03/22 21:55:05;;;;;;;15.10;12.75;;;22.80;41.50;;;;;;4915356;29;20032;-70
2021/03/22 21:57:30;;;;;;;15.35;11.68;;;22.80;41.50;;;;;;4916899;29;20071;-70
2021/03/22 21:59:56;;;;;;;14.18;10.68;;;22.80;41.60;;;;;;4916954;29;20040;-70
2021/03/22 22:02:22;;;;;;;12.25;10.43;;;22.80;41.70;;;;;;4906395;29;20426;-70
2021/03/22 22:04:49;;;;;;;15.00;11.77;;;22.80;41.60;;;;;;4936281;29;20050;-69
2021/03/22 22:07:15;;;;;;;22.45;20.13;;;22.70;41.60;;;;;;4935317;29;20082;-69
2021/03/22 22:09:41;;;;;;;30.67;26.25;;;22.80;41.60;;;;;;4926653;29;20020;-69
2021/03/22 22:12:07;;;;;;;42.33;37.55;;;22.80;41.60;;;;;;4900619;29;20104;-69
2021/03/22 22:14:34;;;;;;;48.60;43.50;;;22.80;41.60;;;;;;4916972;29;20048;-69
2021/03/22 22:17:01;;;;;;;48.13;41.65;;;22.80;41.60;;;;;;4916217;29;20028;-69
2021/03/22 22:19:27;;;;;;;46.28;40.78;;;22.70;41.50;;;;;;4916671;29;20032;-69
2021/03/22 22:21:53;;;;;;;46.92;41.30;;;22.80;41.60;;;;;;4916684;29;20452;-70
2021/03/22 22:24:19;;;;;;;45.20;39.83;;;22.70;41.60;;;;;;4900367;29;20028;-70
2021/03/22 22:26:45;;;;;;;42.70;38.10;;;22.70;41.60;;;;;;4917208;29;20063;-70
2021/03/22 22:29:11;;;;;;;44.17;37.90;;;22.70;41.60;;;;;;4916785;29;20032;-70
2021/03/22 22:31:37;;;;;;;41.75;37.28;;;22.70;41.60;;;;;;4922204;29;20537;-70
2021/03/22 22:34:03;;;;;;;39.55;35.28;;;22.70;41.60;;;;;;4899992;29;20140;-69
2021/03/22 22:36:29;;;;;;;37.38;32.78;;;22.70;41.60;;;;;;4916985;29;20387;-70
2021/03/22 22:38:55;;;;;;;37.83;33.15;;;22.70;41.60;;;;;;4917044;29;20036;-70
2021/03/22 22:41:22;;;;;;;37.55;33.17;;;22.70;41.70;;;;;;4916359;29;20030;-69
2021/03/22 22:43:48;;;;;;;35.08;30.85;;;22.70;41.70;;;;;;4932241;29;20055;-70
2021/03/22 22:46:14;;;;;;;35.17;30.73;;;22.70;41.70;;;;;;4902321;29;20036;-69
2021/03/22 22:48:39;;;;;;;34.75;30.95;;;22.70;41.70;;;;;;4916143;29;20111;-70
2021/03/22 22:51:06;;;;;;;33.60;29.92;;;22.70;41.70;;;;;;4920747;29;20032;-70
2021/03/22 22:53:32;;;;;;;36.30;29.63;;;22.60;41.70;;;;;;4935782;29;20031;-69
2021/03/22 22:55:58;;;;;;;32.20;28.63;;;22.60;41.70;;;;;;4926713;29;20039;-70
2021/03/22 22:58:24;;;;;;;31.33;27.83;;;22.60;41.80;;;;;;4916251;29;20032;-70
2021/03/22 23:00:50;;;;;;;33.35;29.33;;;22.60;41.80;;;;;;4916160;29;20036;-70
2021/03/22 23:03:23;;;;;;;31.33;27.17;;;22.60;41.80;;;;;;4919456;29;20028;-70
2021/03/22 23:05:50;;;;;;;30.80;25.88;;;22.60;41.90;;;;;;4916581;29;20352;-70
2021/03/22 23:08:20;;;;;;;28.75;25.13;;;22.60;41.90;;;;;;4916502;29;20115;-70
2021/03/22 23:10:49;;;;;;;30.40;26.83;;;22.60;42.00;;;;;;4916278;29;20403;-70
2021/03/22 23:13:15;;;;;;;33.35;26.23;;;22.60;41.90;;;;;;4883769;29;20078;-69
2021/03/22 23:15:44;;;;;;;27.02;24.13;;;22.50;41.90;;;;;;4883576;29;20035;-71
2021/03/22 23:18:20;;;;;;;27.80;23.42;;;22.60;42.00;;;;;;4899368;29;20036;-71
2021/03/22 23:20:47;;;;;;;24.33;21.75;;;22.60;42.00;;;;;;4916048;29;20028;-70
2021/03/22 23:23:23;;;;;;;24.88;22.15;;;22.60;41.90;;;;;;4898374;29;20475;-70
2021/03/22 23:25:52;;;;;;;24.70;22.08;;;22.50;41.90;;;;;;4914697;29;20429;-70
2021/03/22 23:28:19;;;;;;;22.83;20.30;;;22.50;41.90;;;;;;4898364;29;20028;-70
2021/03/22 23:30:47;;;;;;;23.85;21.20;;;22.50;41.90;;;;;;4900484;29;20095;-69
2021/03/22 23:33:26;;;;;;;22.52;20.13;;;22.50;41.90;;;;;;4929242;29;20120;-69
2021/03/22 23:35:58;;;;;;;23.35;20.90;;;22.50;41.90;;;;;;4922511;29;20115;-69
2021/03/22 23:38:25;;;;;;;23.75;21.08;;;22.50;41.90;;;;;;4903312;29;20039;-69
2021/03/22 23:40:51;;;;;;;21.33;19.13;;;22.50;41.80;;;;;;4920321;29;20028;-69
2021/03/22 23:43:17;;;;;;;22.23;19.00;;;22.50;41.80;;;;;;4920090;29;20443;-69
2021/03/22 23:45:44;;;;;;;22.38;18.73;;;22.50;41.80;;;;;;4903028;29;20036;-69
2021/03/22 23:48:10;;;;;;;20.65;18.45;;;22.50;41.80;;;;;;4919879;29;20118;-69
2021/03/22 23:50:36;;;;;;;20.80;18.35;;;22.50;41.80;;;;;;4919951;29;20156;-69
2021/03/22 23:53:02;;;;;;;19.75;17.42;;;22.50;41.80;;;;;;4902684;29;20481;-69
2021/03/22 23:55:28;;;;;;;19.90;17.30;;;22.40;41.80;;;;;;4902014;29;20032;-69
2021/03/22 23:57:55;;;;;;;18.30;16.05;;;22.40;41.80;;;;;;4918578;29;20021;-69
